sensor_id;sensor_type;location;lat;lon;timestamp;temperature;humidity
11965;DHT22;6042;41.326;19.826;2023-01-28T00:01:41;7.80;99.90
11965;DHT22;6042;41.326;19.826;2023-01-28T00:04:10;7.80;99.90
11965;DHT22;6042;41.326;19.826;2023-01-28T00:06:39;7.80;99.90
11965;DHT22;6042;41.326;19.826;2023-01-28T00:09:08;7.80;99.90
11965;DHT22;6042;41.326;19.826;2023-01-28T00:11:37;7.80;99.90
11965;DHT22;6042;41.326;19.826;2023-01-28T00:14:06;7.80;99.90
11965;DHT22;6042;41.326;19.826;2023-01-28T00:16:36;7.80;99.90
11965;DHT22;6042;41.326;19.826;2023-01-28T00:19:05;7.80;99.90
11965;DHT22;6042;41.326;19.826;2023-01-28T00:21:33;7.70;99.90
11965;DHT22;6042;41.326;19.826;2023-01-28T00:24:02;7.60;99.90
11965;DHT22;6042;41.326;19.826;2023-01-28T00:26:33;7.70;99.90
11965;DHT22;6042;41.326;19.826;2023-01-28T00:29:02;7.60;99.90
11965;DHT22;6042;41.326;19.826;2023-01-28T00:31:31;7.70;99.90
11965;DHT22;6042;41.326;19.826;2023-01-28T00:34:02;7.70;99.90
11965;DHT22;6042;41.326;19.826;2023-01-28T00:36:31;7.80;99.90
11965;DHT22;6042;41.326;19.826;2023-01-28T00:39:00;7.80;99.90
11965;DHT22;6042;41.326;19.826;2023-01-28T00:41:29;7.70;99.90
11965;DHT22;6042;41.326;19.826;2023-01-28T00:43:58;7.70;99.90
11965;DHT22;6042;41.326;19.826;2023-01-28T00:46:28;7.60;99.90
11965;DHT22;6042;41.326;19.826;2023-01-28T00:48:57;7.50;99.90
11965;DHT22;6042;41.326;19.826;2023-01-28T00:51:27;7.40;99.90
11965;DHT22;6042;41.326;19.826;2023-01-28T00:53:55;7.40;99.90
11965;DHT22;6042;41.326;19.826;2023-01-28T00:56:26;7.40;99.90
11965;DHT22;6042;41.326;19.826;2023-01-28T00:58:55;7.40;99.90
11965;DHT22;6042;41.326;19.826;2023-01-28T01:01:25;7.40;99.90
11965;DHT22;6042;41.326;19.826;2023-01-28T01:03:54;7.40;99.90
11965;DHT22;6042;41.326;19.826;2023-01-28T01:06:33;7.30;99.90
11965;DHT22;6042;41.326;19.826;2023-01-28T01:09:04;7.40;99.90
11965;DHT22;6042;41.326;19.826;2023-01-28T01:11:35;7.40;99.90
11965;DHT22;6042;41.326;19.826;2023-01-28T01:14:03;7.50;99.90
11965;DHT22;6042;41.326;19.826;2023-01-28T01:16:33;7.50;99.90
11965;DHT22;6042;41.326;19.826;2023-01-28T01:19:02;7.60;99.90
11965;DHT22;6042;41.326;19.826;2023-01-28T01:21:33;7.60;99.90
11965;DHT22;6042;41.326;19.826;2023-01-28T01:24:03;7.60;99.90
11965;DHT22;6042;41.326;19.826;2023-01-28T01:26:32;7.50;99.90
11965;DHT22;6042;41.326;19.826;2023-01-28T01:29:00;7.60;99.90
11965;DHT22;6042;41.326;19.826;2023-01-28T01:31:29;7.60;99.90
11965;DHT22;6042;41.326;19.826;2023-01-28T01:33:59;7.60;99.90
11965;DHT22;6042;41.326;19.826;2023-01-28T01:36:29;7.60;99.90
11965;DHT22;6042;41.326;19.826;2023-01-28T01:39:00;7.60;99.90
11965;DHT22;6042;41.326;19.826;2023-01-28T01:41:30;7.60;99.90
11965;DHT22;6042;41.326;19.826;2023-01-28T01:44:00;7.60;99.90
11965;DHT22;6042;41.326;19.826;2023-01-28T01:46:34;7.60;99.90
11965;DHT22;6042;41.326;19.826;2023-01-28T01:49:11;7.60;99.90
11965;DHT22;6042;41.326;19.826;2023-01-28T01:51:43;7.60;99.90
11965;DHT22;6042;41.326;19.826;2023-01-28T01:54:16;7.60;99.90
11965;DHT22;6042;41.326;19.826;2023-01-28T01:56:48;7.60;99.90
11965;DHT22;6042;41.326;19.826;2023-01-28T01:59:21;7.60;99.90
11965;DHT22;6042;41.326;19.826;2023-01-28T02:01:52;7.50;99.90
11965;DHT22;6042;41.326;19.826;2023-01-28T02:04:25;7.50;99.90
11965;DHT22;6042;41.326;19.826;2023-01-28T02:06:55;7.50;99.90
11965;DHT22;6042;41.326;19.826;2023-01-28T02:09:27;7.50;99.90
11965;DHT22;6042;41.326;19.826;2023-01-28T02:12:02;7.30;99.90
11965;DHT22;6042;41.326;19.826;2023-01-28T02:14:34;7.20;99.90
11965;DHT22;6042;41.326;19.826;2023-01-28T02:17:04;7.30;99.90
11965;DHT22;6042;41.326;19.826;2023-01-28T02:19:36;7.40;99.90
11965;DHT22;6042;41.326;19.826;2023-01-28T02:22:21;7.50;99.90
11965;DHT22;6042;41.326;19.826;2023-01-28T02:25:12;7.60;99.90
11965;DHT22;6042;41.326;19.826;2023-01-28T02:28:06;7.50;99.90
11965;DHT22;6042;41.326;19.826;2023-01-28T02:30:41;7.40;99.90
11965;DHT22;6042;41.326;19.826;2023-01-28T02:33:16;7.40;99.90
11965;DHT22;6042;41.326;19.826;2023-01-28T02:35:48;7.50;99.90
11965;DHT22;6042;41.326;19.826;2023-01-28T02:38:24;7.50;99.90
11965;DHT22;6042;41.326;19.826;2023-01-28T02:41:00;7.50;99.90
11965;DHT22;6042;41.326;19.826;2023-01-28T02:43:36;7.50;99.90
11965;DHT22;6042;41.326;19.826;2023-01-28T02:46:17;7.50;99.90
11965;DHT22;6042;41.326;19.826;2023-01-28T02:49:06;7.50;99.90
11965;DHT22;6042;41.326;19.826;2023-01-28T02:51:49;7.50;99.90
11965;DHT22;6042;41.326;19.826;2023-01-28T02:54:31;7.50;99.90
11965;DHT22;6042;41.326;19.826;2023-01-28T02:57:11;7.60;99.90
11965;DHT22;6042;41.326;19.826;2023-01-28T02:59:50;7.60;99.90
11965;DHT22;6042;41.326;19.826;2023-01-28T03:02:29;7.60;99.90
11965;DHT22;6042;41.326;19.826;2023-01-28T03:05:04;7.60;99.90
11965;DHT22;6042;41.326;19.826;2023-01-28T03:07:37;7.70;99.90
11965;DHT22;6042;41.326;19.826;2023-01-28T03:10:09;7.70;99.90
11965;DHT22;6042;41.326;19.826;2023-01-28T03:12:43;7.70;99.90
11965;DHT22;6042;41.326;19.826;2023-01-28T03:15:38;7.70;99.90
11965;DHT22;6042;41.326;19.826;2023-01-28T03:18:29;7.70;99.90
11965;DHT22;6042;41.326;19.826;2023-01-28T03:21:18;7.60;99.90
11965;DHT22;6042;41.326;19.826;2023-01-28T03:24:10;7.60;99.90
11965;DHT22;6042;41.326;19.826;2023-01-28T03:27:05;7.70;99.90
11965;DHT22;6042;41.326;19.826;2023-01-28T03:30:04;7.80;99.90
11965;DHT22;6042;41.326;19.826;2023-01-28T03:32:54;7.90;99.90
11965;DHT22;6042;41.326;19.826;2023-01-28T03:35:41;7.90;99.90
11965;DHT22;6042;41.326;19.826;2023-01-28T03:38:28;8.00;99.90
11965;DHT22;6042;41.326;19.826;2023-01-28T03:41:19;8.00;99.90
11965;DHT22;6042;41.326;19.826;2023-01-28T03:43:50;8.00;99.90
11965;DHT22;6042;41.326;19.826;2023-01-28T03:46:19;8.10;99.90
11965;DHT22;6042;41.326;19.826;2023-01-28T03:48:49;8.00;99.90
11965;DHT22;6042;41.326;19.826;2023-01-28T03:51:18;8.00;99.90
11965;DHT22;6042;41.326;19.826;2023-01-28T03:53:47;7.90;99.90
11965;DHT22;6042;41.326;19.826;2023-01-28T03:56:16;7.90;99.90
11965;DHT22;6042;41.326;19.826;2023-01-28T03:58:46;7.90;99.90
11965;DHT22;6042;41.326;19.826;2023-01-28T04:01:20;7.90;99.90
11965;DHT22;6042;41.326;19.826;2023-01-28T04:03:50;8.00;99.90
11965;DHT22;6042;41.326;19.826;2023-01-28T04:06:27;8.00;99.90
11965;DHT22;6042;41.326;19.826;2023-01-28T04:09:12;8.00;99.90
11965;DHT22;6042;41.326;19.826;2023-01-28T04:11:50;8.10;99.90
11965;DHT22;6042;41.326;19.826;2023-01-28T04:14:34;8.10;99.90
11965;DHT22;6042;41.326;19.826;2023-01-28T04:17:06;8.20;99.90
11965;DHT22;6042;41.326;19.826;2023-01-28T04:19:39;8.20;99.90
11965;DHT22;6042;41.326;19.826;2023-01-28T04:22:10;8.30;99.90
11965;DHT22;6042;41.326;19.826;2023-01-28T04:24:40;8.30;99.90
11965;DHT22;6042;41.326;19.826;2023-01-28T04:27:10;8.30;99.90
11965;DHT22;6042;41.326;19.826;2023-01-28T04:29:38;8.20;99.90
11965;DHT22;6042;41.326;19.826;2023-01-28T04:32:30;8.30;99.90
11965;DHT22;6042;41.326;19.826;2023-01-28T04:35:08;8.20;99.90
11965;DHT22;6042;41.326;19.826;2023-01-28T04:38:03;8.20;99.90
11965;DHT22;6042;41.326;19.826;2023-01-28T04:40:50;8.20;99.90
11965;DHT22;6042;41.326;19.826;2023-01-28T04:43:25;8.20;99.90
11965;DHT22;6042;41.326;19.826;2023-01-28T04:46:13;8.20;99.90
11965;DHT22;6042;41.326;19.826;2023-01-28T04:48:52;8.20;99.90
11965;DHT22;6042;41.326;19.826;2023-01-28T04:51:51;8.20;99.90
11965;DHT22;6042;41.326;19.826;2023-01-28T04:54:20;8.20;99.90
11965;DHT22;6042;41.326;19.826;2023-01-28T04:56:49;8.20;99.90
11965;DHT22;6042;41.326;19.826;2023-01-28T04:59:18;8.20;99.90
11965;DHT22;6042;41.326;19.826;2023-01-28T05:01:47;8.20;99.90
11965;DHT22;6042;41.326;19.826;2023-01-28T05:04:18;8.20;99.90
11965;DHT22;6042;41.326;19.826;2023-01-28T05:06:47;8.20;99.90
11965;DHT22;6042;41.326;19.826;2023-01-28T05:09:22;8.10;99.90
11965;DHT22;6042;41.326;19.826;2023-01-28T05:11:52;8.00;99.90
11965;DHT22;6042;41.326;19.826;2023-01-28T05:14:22;7.90;99.90
11965;DHT22;6042;41.326;19.826;2023-01-28T05:16:58;7.80;99.90
11965;DHT22;6042;41.326;19.826;2023-01-28T05:19:27;7.80;99.90
11965;DHT22;6042;41.326;19.826;2023-01-28T05:21:56;7.90;99.90
11965;DHT22;6042;41.326;19.826;2023-01-28T05:24:42;7.80;99.90
11965;DHT22;6042;41.326;19.826;2023-01-28T05:27:11;7.80;99.90
11965;DHT22;6042;41.326;19.826;2023-01-28T05:29:41;7.80;99.90
11965;DHT22;6042;41.326;19.826;2023-01-28T05:32:10;7.90;99.90
11965;DHT22;6042;41.326;19.826;2023-01-28T05:34:39;8.00;99.90
11965;DHT22;6042;41.326;19.826;2023-01-28T05:37:11;7.90;99.90
11965;DHT22;6042;41.326;19.826;2023-01-28T05:39:41;7.90;99.90
11965;DHT22;6042;41.326;19.826;2023-01-28T05:42:10;8.00;99.90
11965;DHT22;6042;41.326;19.826;2023-01-28T05:44:44;8.00;99.90
11965;DHT22;6042;41.326;19.826;2023-01-28T05:47:22;8.00;99.90
11965;DHT22;6042;41.326;19.826;2023-01-28T05:49:58;8.00;99.90
11965;DHT22;6042;41.326;19.826;2023-01-28T05:52:30;8.10;99.90
11965;DHT22;6042;41.326;19.826;2023-01-28T05:55:01;8.10;99.90
11965;DHT22;6042;41.326;19.826;2023-01-28T05:57:31;8.20;99.90
11965;DHT22;6042;41.326;19.826;2023-01-28T06:00:00;8.20;99.90
11965;DHT22;6042;41.326;19.826;2023-01-28T06:02:40;8.00;99.90
11965;DHT22;6042;41.326;19.826;2023-01-28T06:05:12;7.80;99.90
11965;DHT22;6042;41.326;19.826;2023-01-28T06:07:43;7.70;99.90
11965;DHT22;6042;41.326;19.826;2023-01-28T06:10:14;7.60;99.90
11965;DHT22;6042;41.326;19.826;2023-01-28T06:12:44;7.60;99.90
11965;DHT22;6042;41.326;19.826;2023-01-28T06:15:32;7.60;99.90
11965;DHT22;6042;41.326;19.826;2023-01-28T06:18:13;7.50;99.90
11965;DHT22;6042;41.326;19.826;2023-01-28T06:20:42;7.50;99.90
11965;DHT22;6042;41.326;19.826;2023-01-28T06:23:11;7.50;99.90
11965;DHT22;6042;41.326;19.826;2023-01-28T06:25:42;7.50;99.90
11965;DHT22;6042;41.326;19.826;2023-01-28T06:28:13;7.50;99.90
11965;DHT22;6042;41.326;19.826;2023-01-28T06:30:43;7.50;99.90
11965;DHT22;6042;41.326;19.826;2023-01-28T06:33:12;7.40;99.90
11965;DHT22;6042;41.326;19.826;2023-01-28T06:35:40;7.50;99.90
11965;DHT22;6042;41.326;19.826;2023-01-28T06:38:11;7.60;99.90
11965;DHT22;6042;41.326;19.826;2023-01-28T06:40:41;7.70;99.90
11965;DHT22;6042;41.326;19.826;2023-01-28T06:43:10;7.70;99.90
11965;DHT22;6042;41.326;19.826;2023-01-28T06:45:38;7.60;99.90
11965;DHT22;6042;41.326;19.826;2023-01-28T06:48:07;7.60;99.90
11965;DHT22;6042;41.326;19.826;2023-01-28T06:50:36;7.60;99.90
11965;DHT22;6042;41.326;19.826;2023-01-28T06:53:05;7.70;99.90
11965;DHT22;6042;41.326;19.826;2023-01-28T06:55:33;7.80;99.90
11965;DHT22;6042;41.326;19.826;2023-01-28T06:58:03;7.80;99.90
11965;DHT22;6042;41.326;19.826;2023-01-28T07:00:32;7.80;99.90
11965;DHT22;6042;41.326;19.826;2023-01-28T07:03:01;7.90;99.90
11965;DHT22;6042;41.326;19.826;2023-01-28T07:05:29;7.90;99.90
11965;DHT22;6042;41.326;19.826;2023-01-28T07:07:58;7.70;99.90
11965;DHT22;6042;41.326;19.826;2023-01-28T07:10:28;7.50;99.90
11965;DHT22;6042;41.326;19.826;2023-01-28T07:12:57;7.30;99.90
11965;DHT22;6042;41.326;19.826;2023-01-28T07:15:27;7.30;99.90
11965;DHT22;6042;41.326;19.826;2023-01-28T07:17:55;7.60;99.90
11965;DHT22;6042;41.326;19.826;2023-01-28T07:20:25;7.70;99.90
11965;DHT22;6042;41.326;19.826;2023-01-28T07:22:54;7.90;99.90
11965;DHT22;6042;41.326;19.826;2023-01-28T07:25:23;7.90;99.90
11965;DHT22;6042;41.326;19.826;2023-01-28T07:27:52;8.00;99.90
11965;DHT22;6042;41.326;19.826;2023-01-28T07:30:21;8.10;99.90
11965;DHT22;6042;41.326;19.826;2023-01-28T07:32:55;8.30;99.90
11965;DHT22;6042;41.326;19.826;2023-01-28T07:35:25;8.20;99.90
11965;DHT22;6042;41.326;19.826;2023-01-28T07:37:55;8.20;99.90
11965;DHT22;6042;41.326;19.826;2023-01-28T07:40:25;8.30;99.90
11965;DHT22;6042;41.326;19.826;2023-01-28T07:42:54;8.50;99.90
11965;DHT22;6042;41.326;19.826;2023-01-28T07:45:26;8.60;99.90
11965;DHT22;6042;41.326;19.826;2023-01-28T07:47:59;8.60;99.90
11965;DHT22;6042;41.326;19.826;2023-01-28T07:50:29;8.60;99.90
11965;DHT22;6042;41.326;19.826;2023-01-28T07:53:01;8.70;99.90
11965;DHT22;6042;41.326;19.826;2023-01-28T07:55:30;8.70;99.90
11965;DHT22;6042;41.326;19.826;2023-01-28T07:58:03;8.80;99.90
11965;DHT22;6042;41.326;19.826;2023-01-28T08:00:34;8.80;99.90
11965;DHT22;6042;41.326;19.826;2023-01-28T08:03:13;8.70;99.90
11965;DHT22;6042;41.326;19.826;2023-01-28T08:05:44;8.70;99.90
11965;DHT22;6042;41.326;19.826;2023-01-28T08:08:13;8.70;99.90
11965;DHT22;6042;41.326;19.826;2023-01-28T08:10:42;8.70;99.90
11965;DHT22;6042;41.326;19.826;2023-01-28T08:13:12;8.90;99.90
11965;DHT22;6042;41.326;19.826;2023-01-28T08:15:41;9.10;99.90
11965;DHT22;6042;41.326;19.826;2023-01-28T08:18:13;9.00;99.90
11965;DHT22;6042;41.326;19.826;2023-01-28T08:20:43;9.10;99.90
11965;DHT22;6042;41.326;19.826;2023-01-28T08:23:15;9.30;99.90
11965;DHT22;6042;41.326;19.826;2023-01-28T08:25:44;9.60;99.90
11965;DHT22;6042;41.326;19.826;2023-01-28T08:28:14;9.70;99.90
11965;DHT22;6042;41.326;19.826;2023-01-28T08:30:43;9.90;99.90
11965;DHT22;6042;41.326;19.826;2023-01-28T08:33:14;10.00;99.90
11965;DHT22;6042;41.326;19.826;2023-01-28T08:35:43;10.00;99.90
11965;DHT22;6042;41.326;19.826;2023-01-28T08:38:12;10.10;99.90
11965;DHT22;6042;41.326;19.826;2023-01-28T08:40:42;10.40;99.90
11965;DHT22;6042;41.326;19.826;2023-01-28T08:43:11;10.50;99.90
11965;DHT22;6042;41.326;19.826;2023-01-28T08:45:39;10.40;99.90
11965;DHT22;6042;41.326;19.826;2023-01-28T08:48:13;10.50;99.90
11965;DHT22;6042;41.326;19.826;2023-01-28T08:50:43;10.50;99.90
11965;DHT22;6042;41.326;19.826;2023-01-28T08:53:13;10.60;99.90
11965;DHT22;6042;41.326;19.826;2023-01-28T08:55:43;10.60;99.90
11965;DHT22;6042;41.326;19.826;2023-01-28T08:58:13;10.60;99.90
11965;DHT22;6042;41.326;19.826;2023-01-28T09:00:43;10.60;99.90
11965;DHT22;6042;41.326;19.826;2023-01-28T09:03:13;10.60;99.90
11965;DHT22;6042;41.326;19.826;2023-01-28T09:05:42;10.70;99.90
11965;DHT22;6042;41.326;19.826;2023-01-28T09:08:13;10.90;99.90
11965;DHT22;6042;41.326;19.826;2023-01-28T09:10:43;11.00;99.90
11965;DHT22;6042;41.326;19.826;2023-01-28T09:13:13;11.00;99.90
11965;DHT22;6042;41.326;19.826;2023-01-28T09:15:42;10.90;99.90
11965;DHT22;6042;41.326;19.826;2023-01-28T09:18:13;10.60;99.90
11965;DHT22;6042;41.326;19.826;2023-01-28T09:20:41;10.70;99.90
11965;DHT22;6042;41.326;19.826;2023-01-28T09:23:10;10.70;99.90
11965;DHT22;6042;41.326;19.826;2023-01-28T09:25:39;10.80;99.90
11965;DHT22;6042;41.326;19.826;2023-01-28T09:28:08;10.90;99.90
11965;DHT22;6042;41.326;19.826;2023-01-28T09:30:37;11.00;99.90
11965;DHT22;6042;41.326;19.826;2023-01-28T09:33:06;11.10;99.90
11965;DHT22;6042;41.326;19.826;2023-01-28T09:35:37;11.20;99.90
11965;DHT22;6042;41.326;19.826;2023-01-28T09:38:05;11.20;99.90
11965;DHT22;6042;41.326;19.826;2023-01-28T09:40:37;11.10;99.90
11965;DHT22;6042;41.326;19.826;2023-01-28T09:43:18;11.20;99.90
11965;DHT22;6042;41.326;19.826;2023-01-28T09:45:54;11.20;99.90
11965;DHT22;6042;41.326;19.826;2023-01-28T09:48:27;11.10;99.90
11965;DHT22;6042;41.326;19.826;2023-01-28T09:51:00;11.10;99.90
11965;DHT22;6042;41.326;19.826;2023-01-28T09:53:30;11.20;99.90
11965;DHT22;6042;41.326;19.826;2023-01-28T09:56:02;11.30;99.90
11965;DHT22;6042;41.326;19.826;2023-01-28T09:58:31;11.40;99.90
11965;DHT22;6042;41.326;19.826;2023-01-28T10:01:03;11.40;99.90
11965;DHT22;6042;41.326;19.826;2023-01-28T10:03:46;11.40;99.90
11965;DHT22;6042;41.326;19.826;2023-01-28T10:06:25;11.50;99.90
11965;DHT22;6042;41.326;19.826;2023-01-28T10:09:17;11.50;99.90
11965;DHT22;6042;41.326;19.826;2023-01-28T10:11:58;11.60;99.90
11965;DHT22;6042;41.326;19.826;2023-01-28T10:14:39;11.50;99.90
11965;DHT22;6042;41.326;19.826;2023-01-28T10:17:15;11.60;99.90
11965;DHT22;6042;41.326;19.826;2023-01-28T10:19:47;11.60;99.90
11965;DHT22;6042;41.326;19.826;2023-01-28T10:22:22;11.60;99.90
11965;DHT22;6042;41.326;19.826;2023-01-28T10:24:54;11.60;99.90
11965;DHT22;6042;41.326;19.826;2023-01-28T10:27:29;11.60;99.90
11965;DHT22;6042;41.326;19.826;2023-01-28T10:30:07;11.50;99.90
11965;DHT22;6042;41.326;19.826;2023-01-28T10:32:48;11.50;99.90
11965;DHT22;6042;41.326;19.826;2023-01-28T10:35:19;11.60;99.90
11965;DHT22;6042;41.326;19.826;2023-01-28T10:37:58;11.70;99.90
11965;DHT22;6042;41.326;19.826;2023-01-28T10:40:28;11.70;99.10
11965;DHT22;6042;41.326;19.826;2023-01-28T10:42:56;11.80;99.40
11965;DHT22;6042;41.326;19.826;2023-01-28T10:45:27;12.00;99.00
11965;DHT22;6042;41.326;19.826;2023-01-28T10:48:01;12.00;99.00
11965;DHT22;6042;41.326;19.826;2023-01-28T10:50:32;12.10;98.60
11965;DHT22;6042;41.326;19.826;2023-01-28T10:53:04;12.20;98.30
11965;DHT22;6042;41.326;19.826;2023-01-28T10:55:48;12.20;98.20
11965;DHT22;6042;41.326;19.826;2023-01-28T10:58:20;12.20;97.50
11965;DHT22;6042;41.326;19.826;2023-01-28T11:00:52;12.20;97.70
11965;DHT22;6042;41.326;19.826;2023-01-28T11:03:23;12.20;97.70
11965;DHT22;6042;41.326;19.826;2023-01-28T11:05:55;12.20;98.10
11965;DHT22;6042;41.326;19.826;2023-01-28T11:08:27;12.30;98.00
11965;DHT22;6042;41.326;19.826;2023-01-28T11:10:56;12.40;98.10
11965;DHT22;6042;41.326;19.826;2023-01-28T11:13:26;12.60;97.60
11965;DHT22;6042;41.326;19.826;2023-01-28T11:16:00;12.70;97.50
11965;DHT22;6042;41.326;19.826;2023-01-28T11:18:30;12.90;96.80
11965;DHT22;6042;41.326;19.826;2023-01-28T11:21:02;13.10;97.00
11965;DHT22;6042;41.326;19.826;2023-01-28T11:23:36;13.10;97.20
11965;DHT22;6042;41.326;19.826;2023-01-28T11:26:13;13.20;97.50
11965;DHT22;6042;41.326;19.826;2023-01-28T11:28:43;13.50;96.30
11965;DHT22;6042;41.326;19.826;2023-01-28T11:31:14;13.40;96.30
11965;DHT22;6042;41.326;19.826;2023-01-28T11:33:48;13.50;96.70
11965;DHT22;6042;41.326;19.826;2023-01-28T11:36:20;13.60;96.50
11965;DHT22;6042;41.326;19.826;2023-01-28T11:38:52;13.70;96.00
11965;DHT22;6042;41.326;19.826;2023-01-28T11:41:28;13.60;95.90
11965;DHT22;6042;41.326;19.826;2023-01-28T11:43:59;13.40;96.50
11965;DHT22;6042;41.326;19.826;2023-01-28T11:46:50;13.10;96.90
11965;DHT22;6042;41.326;19.826;2023-01-28T11:49:29;12.70;97.20
11965;DHT22;6042;41.326;19.826;2023-01-28T11:52:11;12.60;97.70
11965;DHT22;6042;41.326;19.826;2023-01-28T11:54:51;12.70;97.50
11965;DHT22;6042;41.326;19.826;2023-01-28T11:57:24;12.80;97.40
11965;DHT22;6042;41.326;19.826;2023-01-28T12:00:11;12.90;97.30
11965;DHT22;6042;41.326;19.826;2023-01-28T12:02:50;13.20;96.80
11965;DHT22;6042;41.326;19.826;2023-01-28T12:05:39;13.60;96.40
11965;DHT22;6042;41.326;19.826;2023-01-28T12:08:18;13.80;96.10
11965;DHT22;6042;41.326;19.826;2023-01-28T12:11:02;13.70;95.90
11965;DHT22;6042;41.326;19.826;2023-01-28T12:13:54;13.50;96.30
11965;DHT22;6042;41.326;19.826;2023-01-28T12:16:50;13.40;96.20
11965;DHT22;6042;41.326;19.826;2023-01-28T12:19:38;13.50;96.10
11965;DHT22;6042;41.326;19.826;2023-01-28T12:22:48;13.60;96.10
11965;DHT22;6042;41.326;19.826;2023-01-28T12:25:31;13.50;96.40
11965;DHT22;6042;41.326;19.826;2023-01-28T12:28:10;13.50;96.10
11965;DHT22;6042;41.326;19.826;2023-01-28T12:30:59;13.80;96.40
11965;DHT22;6042;41.326;19.826;2023-01-28T12:33:54;13.90;95.50
11965;DHT22;6042;41.326;19.826;2023-01-28T12:36:39;14.30;94.80
11965;DHT22;6042;41.326;19.826;2023-01-28T12:39:18;14.30;94.90
11965;DHT22;6042;41.326;19.826;2023-01-28T12:41:53;14.30;94.80
11965;DHT22;6042;41.326;19.826;2023-01-28T12:44:30;14.50;94.60
11965;DHT22;6042;41.326;19.826;2023-01-28T12:47:04;14.50;94.70
11965;DHT22;6042;41.326;19.826;2023-01-28T12:49:36;14.60;94.30
11965;DHT22;6042;41.326;19.826;2023-01-28T12:52:11;14.50;94.50
11965;DHT22;6042;41.326;19.826;2023-01-28T12:54:49;14.70;94.40
11965;DHT22;6042;41.326;19.826;2023-01-28T12:57:23;14.70;94.20
11965;DHT22;6042;41.326;19.826;2023-01-28T12:59:59;14.80;94.20
11965;DHT22;6042;41.326;19.826;2023-01-28T13:02:33;14.80;94.10
11965;DHT22;6042;41.326;19.826;2023-01-28T13:05:07;14.80;94.10
11965;DHT22;6042;41.326;19.826;2023-01-28T13:07:44;14.90;94.20
11965;DHT22;6042;41.326;19.826;2023-01-28T13:10:21;14.80;94.20
11965;DHT22;6042;41.326;19.826;2023-01-28T13:12:52;14.50;93.90
11965;DHT22;6042;41.326;19.826;2023-01-28T13:15:23;14.10;94.50
11965;DHT22;6042;41.326;19.826;2023-01-28T13:17:54;14.00;94.80
11965;DHT22;6042;41.326;19.826;2023-01-28T13:20:35;13.90;94.70
11965;DHT22;6042;41.326;19.826;2023-01-28T13:23:19;13.80;94.70
11965;DHT22;6042;41.326;19.826;2023-01-28T13:25:50;13.70;94.80
11965;DHT22;6042;41.326;19.826;2023-01-28T13:28:28;13.50;95.20
11965;DHT22;6042;41.326;19.826;2023-01-28T13:31:03;13.50;95.40
11965;DHT22;6042;41.326;19.826;2023-01-28T13:33:34;13.40;95.50
11965;DHT22;6042;41.326;19.826;2023-01-28T13:36:17;13.30;95.60
11965;DHT22;6042;41.326;19.826;2023-01-28T13:38:49;13.20;95.90
11965;DHT22;6042;41.326;19.826;2023-01-28T13:41:37;13.00;96.30
11965;DHT22;6042;41.326;19.826;2023-01-28T13:44:17;13.10;96.50
11965;DHT22;6042;41.326;19.826;2023-01-28T13:46:47;13.10;96.50
11965;DHT22;6042;41.326;19.826;2023-01-28T13:49:22;13.10;96.60
11965;DHT22;6042;41.326;19.826;2023-01-28T13:52:00;13.10;96.90
11965;DHT22;6042;41.326;19.826;2023-01-28T13:54:36;13.00;96.80
11965;DHT22;6042;41.326;19.826;2023-01-28T13:57:55;12.80;97.00
11965;DHT22;6042;41.326;19.826;2023-01-28T14:00:40;12.80;97.10
11965;DHT22;6042;41.326;19.826;2023-01-28T14:03:33;12.80;97.20
11965;DHT22;6042;41.326;19.826;2023-01-28T14:09:30;12.70;97.50
11965;DHT22;6042;41.326;19.826;2023-01-28T14:15:31;12.80;97.10
11965;DHT22;6042;41.326;19.826;2023-01-28T14:18:14;12.70;97.40
11965;DHT22;6042;41.326;19.826;2023-01-28T14:20:48;12.60;97.50
11965;DHT22;6042;41.326;19.826;2023-01-28T14:23:19;12.40;97.50
11965;DHT22;6042;41.326;19.826;2023-01-28T14:26:00;12.50;97.70
11965;DHT22;6042;41.326;19.826;2023-01-28T14:28:40;12.50;97.70
11965;DHT22;6042;41.326;19.826;2023-01-28T14:31:15;12.30;98.10
11965;DHT22;6042;41.326;19.826;2023-01-28T14:33:46;12.20;98.10
11965;DHT22;6042;41.326;19.826;2023-01-28T14:36:17;12.30;98.20
11965;DHT22;6042;41.326;19.826;2023-01-28T14:38:46;12.30;98.20
11965;DHT22;6042;41.326;19.826;2023-01-28T14:41:21;12.30;98.30
11965;DHT22;6042;41.326;19.826;2023-01-28T14:43:52;12.30;98.50
11965;DHT22;6042;41.326;19.826;2023-01-28T14:46:30;12.30;98.50
11965;DHT22;6042;41.326;19.826;2023-01-28T14:49:18;12.30;99.20
11965;DHT22;6042;41.326;19.826;2023-01-28T14:52:15;12.30;99.30
11965;DHT22;6042;41.326;19.826;2023-01-28T14:54:54;12.30;99.10
11965;DHT22;6042;41.326;19.826;2023-01-28T14:57:45;12.30;98.50
11965;DHT22;6042;41.326;19.826;2023-01-28T15:00:19;12.30;98.70
11965;DHT22;6042;41.326;19.826;2023-01-28T15:02:49;12.30;99.90
11965;DHT22;6042;41.326;19.826;2023-01-28T15:05:20;12.30;99.90
11965;DHT22;6042;41.326;19.826;2023-01-28T15:07:51;12.20;99.90
11965;DHT22;6042;41.326;19.826;2023-01-28T15:10:24;12.20;99.90
11965;DHT22;6042;41.326;19.826;2023-01-28T15:12:57;12.20;99.90
11965;DHT22;6042;41.326;19.826;2023-01-28T15:15:29;12.00;98.10
11965;DHT22;6042;41.326;19.826;2023-01-28T15:18:02;11.90;97.60
11965;DHT22;6042;41.326;19.826;2023-01-28T15:20:32;11.90;97.10
11965;DHT22;6042;41.326;19.826;2023-01-28T15:23:05;11.70;97.00
11965;DHT22;6042;41.326;19.826;2023-01-28T15:25:36;11.50;97.20
11965;DHT22;6042;41.326;19.826;2023-01-28T15:28:04;11.30;97.40
11965;DHT22;6042;41.326;19.826;2023-01-28T15:30:34;11.20;97.30
11965;DHT22;6042;41.326;19.826;2023-01-28T15:33:05;11.10;97.30
11965;DHT22;6042;41.326;19.826;2023-01-28T15:35:35;11.00;96.60
11965;DHT22;6042;41.326;19.826;2023-01-28T15:38:07;10.90;96.80
11965;DHT22;6042;41.326;19.826;2023-01-28T15:40:41;10.80;96.50
11965;DHT22;6042;41.326;19.826;2023-01-28T15:43:18;10.80;96.30
11965;DHT22;6042;41.326;19.826;2023-01-28T15:45:48;10.70;96.70
11965;DHT22;6042;41.326;19.826;2023-01-28T15:48:17;10.70;96.70
11965;DHT22;6042;41.326;19.826;2023-01-28T15:50:46;10.60;96.90
11965;DHT22;6042;41.326;19.826;2023-01-28T15:53:16;10.60;96.90
11965;DHT22;6042;41.326;19.826;2023-01-28T15:55:45;10.60;97.00
11965;DHT22;6042;41.326;19.826;2023-01-28T15:58:17;10.60;97.50
11965;DHT22;6042;41.326;19.826;2023-01-28T16:00:47;10.60;97.30
11965;DHT22;6042;41.326;19.826;2023-01-28T16:03:19;10.60;97.30
11965;DHT22;6042;41.326;19.826;2023-01-28T16:05:59;10.60;97.20
11965;DHT22;6042;41.326;19.826;2023-01-28T16:08:36;10.40;97.70
11965;DHT22;6042;41.326;19.826;2023-01-28T16:11:08;10.40;97.80
11965;DHT22;6042;41.326;19.826;2023-01-28T16:13:41;10.50;97.90
11965;DHT22;6042;41.326;19.826;2023-01-28T16:16:11;10.50;97.80
11965;DHT22;6042;41.326;19.826;2023-01-28T16:18:41;10.60;98.20
11965;DHT22;6042;41.326;19.826;2023-01-28T16:21:19;10.70;97.90
11965;DHT22;6042;41.326;19.826;2023-01-28T16:23:58;10.80;97.80
11965;DHT22;6042;41.326;19.826;2023-01-28T16:26:29;10.80;97.90
11965;DHT22;6042;41.326;19.826;2023-01-28T16:29:00;10.80;98.50
11965;DHT22;6042;41.326;19.826;2023-01-28T16:31:39;10.70;99.00